Wesson, Mississippi
Current Conditions -  °F | °C
As of 2:55 PM on Thursday 23 Oct 2014 (Local Time) from K1R7 Reporting Station
Clear Clear  
Wind Chill: 70°   Ceiling: Unl
Heat Index: 70°   Visibility: 10mi
Dew Point: 45°   Wind: 3mph
Humidity: 40%   Direction: 40°NE
Pressure: 30.09"   Gusts: NA
Location:  31.7°N, 90.4°W
Report Text: K1R7 231955Z AUTO 04003KT 10SM CLR 21/07 A3009 RMK AO2
Loading
Personal Weather Stations






























Interactive Weather Map
Tropical Storm Tracking
New forecast layout! Learn more

10-Day Weather Forecast

Advertisements
Track Severe Weather on mobile